sensor_id;sensor_type;location;lat;lon;timestamp;P1;durP1;ratioP1;P2;durP2;ratioP2
7398;SDS011;3740;50.700;7.184;2022-12-20T00:01:19;3.20;;;2.97;;
7398;SDS011;3740;50.700;7.184;2022-12-20T00:03:48;3.33;;;2.83;;
7398;SDS011;3740;50.700;7.184;2022-12-20T00:06:15;3.80;;;3.33;;
7398;SDS011;3740;50.700;7.184;2022-12-20T00:08:40;3.07;;;2.77;;
7398;SDS011;3740;50.700;7.184;2022-12-20T00:11:07;3.90;;;3.40;;
7398;SDS011;3740;50.700;7.184;2022-12-20T00:13:35;4.77;;;4.13;;
7398;SDS011;3740;50.700;7.184;2022-12-20T00:18:40;5.70;;;4.90;;
7398;SDS011;3740;50.700;7.184;2022-12-20T00:21:07;5.77;;;5.23;;
7398;SDS011;3740;50.700;7.184;2022-12-20T00:23:35;6.80;;;5.13;;
7398;SDS011;3740;50.700;7.184;2022-12-20T00:28:34;6.90;;;5.97;;
7398;SDS011;3740;50.700;7.184;2022-12-20T00:31:00;6.63;;;6.03;;
7398;SDS011;3740;50.700;7.184;2022-12-20T00:33:26;7.07;;;6.40;;
7398;SDS011;3740;50.700;7.184;2022-12-20T00:35:56;6.43;;;5.83;;
7398;SDS011;3740;50.700;7.184;2022-12-20T00:38:22;6.73;;;6.13;;
7398;SDS011;3740;50.700;7.184;2022-12-20T00:40:58;7.07;;;5.90;;
7398;SDS011;3740;50.700;7.184;2022-12-20T00:43:34;6.20;;;5.70;;
7398;SDS011;3740;50.700;7.184;2022-12-20T00:46:00;7.23;;;5.70;;
7398;SDS011;3740;50.700;7.184;2022-12-20T00:48:26;6.63;;;5.47;;
7398;SDS011;3740;50.700;7.184;2022-12-20T00:51:00;5.33;;;4.83;;
7398;SDS011;3740;50.700;7.184;2022-12-20T00:53:46;7.73;;;5.17;;
7398;SDS011;3740;50.700;7.184;2022-12-20T00:56:11;6.30;;;5.70;;
7398;SDS011;3740;50.700;7.184;2022-12-20T00:58:38;5.70;;;5.20;;
7398;SDS011;3740;50.700;7.184;2022-12-20T01:01:10;5.80;;;5.30;;
7398;SDS011;3740;50.700;7.184;2022-12-20T01:03:45;6.50;;;5.50;;
7398;SDS011;3740;50.700;7.184;2022-12-20T01:06:11;5.83;;;5.30;;
7398;SDS011;3740;50.700;7.184;2022-12-20T01:08:37;6.40;;;5.80;;
7398;SDS011;3740;50.700;7.184;2022-12-20T01:11:14;7.00;;;5.97;;
7398;SDS011;3740;50.700;7.184;2022-12-20T01:13:43;7.57;;;6.07;;
7398;SDS011;3740;50.700;7.184;2022-12-20T01:16:20;8.10;;;6.10;;
7398;SDS011;3740;50.700;7.184;2022-12-20T01:18:51;6.87;;;6.17;;
7398;SDS011;3740;50.700;7.184;2022-12-20T01:21:18;6.87;;;6.17;;
7398;SDS011;3740;50.700;7.184;2022-12-20T01:23:46;7.40;;;6.60;;
7398;SDS011;3740;50.700;7.184;2022-12-20T01:26:13;7.80;;;6.73;;
7398;SDS011;3740;50.700;7.184;2022-12-20T01:28:41;7.57;;;6.87;;
7398;SDS011;3740;50.700;7.184;2022-12-20T01:31:10;8.03;;;7.00;;
7398;SDS011;3740;50.700;7.184;2022-12-20T01:33:37;6.93;;;6.33;;
7398;SDS011;3740;50.700;7.184;2022-12-20T01:36:04;7.70;;;6.80;;
7398;SDS011;3740;50.700;7.184;2022-12-20T01:38:32;8.03;;;6.70;;
7398;SDS011;3740;50.700;7.184;2022-12-20T01:40:59;7.27;;;6.57;;
7398;SDS011;3740;50.700;7.184;2022-12-20T01:43:25;7.00;;;6.37;;
7398;SDS011;3740;50.700;7.184;2022-12-20T01:46:19;6.97;;;6.27;;
7398;SDS011;3740;50.700;7.184;2022-12-20T01:48:59;6.90;;;6.17;;
7398;SDS011;3740;50.700;7.184;2022-12-20T01:51:44;7.50;;;6.13;;
7398;SDS011;3740;50.700;7.184;2022-12-20T01:54:14;6.90;;;6.27;;
7398;SDS011;3740;50.700;7.184;2022-12-20T01:56:47;7.57;;;6.80;;
7398;SDS011;3740;50.700;7.184;2022-12-20T01:59:17;7.03;;;6.43;;
7398;SDS011;3740;50.700;7.184;2022-12-20T02:01:43;8.07;;;6.50;;
7398;SDS011;3740;50.700;7.184;2022-12-20T02:04:10;6.57;;;5.97;;
7398;SDS011;3740;50.700;7.184;2022-12-20T02:06:35;6.43;;;5.83;;
7398;SDS011;3740;50.700;7.184;2022-12-20T02:09:02;7.73;;;6.30;;
7398;SDS011;3740;50.700;7.184;2022-12-20T02:11:36;8.27;;;5.90;;
7398;SDS011;3740;50.700;7.184;2022-12-20T02:17:09;6.60;;;6.00;;
7398;SDS011;3740;50.700;7.184;2022-12-20T02:19:52;7.43;;;6.73;;
7398;SDS011;3740;50.700;7.184;2022-12-20T02:31:06;6.17;;;5.57;;
7398;SDS011;3740;50.700;7.184;2022-12-20T02:33:35;6.20;;;5.57;;
7398;SDS011;3740;50.700;7.184;2022-12-20T02:38:49;6.30;;;5.33;;
7398;SDS011;3740;50.700;7.184;2022-12-20T02:43:48;7.13;;;5.67;;
7398;SDS011;3740;50.700;7.184;2022-12-20T02:46:37;5.50;;;4.97;;
7398;SDS011;3740;50.700;7.184;2022-12-20T02:49:06;5.63;;;5.03;;
7398;SDS011;3740;50.700;7.184;2022-12-20T02:51:36;5.67;;;4.60;;
7398;SDS011;3740;50.700;7.184;2022-12-20T02:54:02;5.23;;;4.83;;
7398;SDS011;3740;50.700;7.184;2022-12-20T02:56:40;6.20;;;4.67;;
7398;SDS011;3740;50.700;7.184;2022-12-20T02:59:10;4.77;;;4.33;;
7398;SDS011;3740;50.700;7.184;2022-12-20T03:01:44;4.70;;;4.30;;
7398;SDS011;3740;50.700;7.184;2022-12-20T03:04:17;6.67;;;4.57;;
7398;SDS011;3740;50.700;7.184;2022-12-20T03:06:56;5.23;;;4.30;;
7398;SDS011;3740;50.700;7.184;2022-12-20T03:09:23;3.60;;;3.27;;
7398;SDS011;3740;50.700;7.184;2022-12-20T03:11:49;4.20;;;3.67;;
7398;SDS011;3740;50.700;7.184;2022-12-20T03:14:15;3.40;;;3.10;;
7398;SDS011;3740;50.700;7.184;2022-12-20T03:16:40;4.13;;;3.30;;
7398;SDS011;3740;50.700;7.184;2022-12-20T03:19:06;3.90;;;2.97;;
7398;SDS011;3740;50.700;7.184;2022-12-20T03:21:31;3.20;;;2.90;;
7398;SDS011;3740;50.700;7.184;2022-12-20T03:23:57;2.87;;;2.67;;
7398;SDS011;3740;50.700;7.184;2022-12-20T03:26:22;3.07;;;2.80;;
7398;SDS011;3740;50.700;7.184;2022-12-20T03:28:48;3.27;;;2.90;;
7398;SDS011;3740;50.700;7.184;2022-12-20T03:31:13;4.63;;;2.77;;
7398;SDS011;3740;50.700;7.184;2022-12-20T03:33:39;2.80;;;2.60;;
7398;SDS011;3740;50.700;7.184;2022-12-20T03:36:05;6.50;;;3.33;;
7398;SDS011;3740;50.700;7.184;2022-12-20T03:38:30;2.90;;;2.70;;
7398;SDS011;3740;50.700;7.184;2022-12-20T03:40:56;2.90;;;2.60;;
7398;SDS011;3740;50.700;7.184;2022-12-20T03:43:21;3.37;;;3.07;;
7398;SDS011;3740;50.700;7.184;2022-12-20T03:45:47;3.20;;;2.90;;
7398;SDS011;3740;50.700;7.184;2022-12-20T03:48:13;3.27;;;2.57;;
7398;SDS011;3740;50.700;7.184;2022-12-20T03:50:38;3.80;;;3.00;;
7398;SDS011;3740;50.700;7.184;2022-12-20T03:53:04;2.80;;;2.57;;
7398;SDS011;3740;50.700;7.184;2022-12-20T03:55:29;3.10;;;2.80;;
7398;SDS011;3740;50.700;7.184;2022-12-20T03:57:55;2.70;;;2.50;;
7398;SDS011;3740;50.700;7.184;2022-12-20T04:00:20;4.07;;;2.77;;
7398;SDS011;3740;50.700;7.184;2022-12-20T04:02:46;4.93;;;3.07;;
7398;SDS011;3740;50.700;7.184;2022-12-20T04:05:11;4.60;;;2.80;;
7398;SDS011;3740;50.700;7.184;2022-12-20T04:07:37;3.37;;;2.50;;
7398;SDS011;3740;50.700;7.184;2022-12-20T04:10:03;3.87;;;2.80;;
7398;SDS011;3740;50.700;7.184;2022-12-20T04:12:29;3.63;;;2.70;;
7398;SDS011;3740;50.700;7.184;2022-12-20T04:14:54;3.90;;;2.70;;
7398;SDS011;3740;50.700;7.184;2022-12-20T04:17:20;4.00;;;2.60;;
7398;SDS011;3740;50.700;7.184;2022-12-20T04:19:45;5.60;;;3.00;;
7398;SDS011;3740;50.700;7.184;2022-12-20T04:22:11;4.43;;;2.90;;
7398;SDS011;3740;50.700;7.184;2022-12-20T04:24:36;4.17;;;2.80;;
7398;SDS011;3740;50.700;7.184;2022-12-20T04:27:02;4.03;;;3.07;;
7398;SDS011;3740;50.700;7.184;2022-12-20T04:29:28;3.10;;;2.63;;
7398;SDS011;3740;50.700;7.184;2022-12-20T04:31:53;3.33;;;2.80;;
7398;SDS011;3740;50.700;7.184;2022-12-20T04:34:19;2.87;;;2.57;;
7398;SDS011;3740;50.700;7.184;2022-12-20T04:36:44;2.97;;;2.67;;
7398;SDS011;3740;50.700;7.184;2022-12-20T04:39:10;2.80;;;2.43;;
7398;SDS011;3740;50.700;7.184;2022-12-20T04:41:35;4.63;;;3.07;;
7398;SDS011;3740;50.700;7.184;2022-12-20T04:44:01;2.93;;;2.70;;
7398;SDS011;3740;50.700;7.184;2022-12-20T04:46:26;3.20;;;2.90;;
7398;SDS011;3740;50.700;7.184;2022-12-20T04:48:52;3.23;;;2.70;;
7398;SDS011;3740;50.700;7.184;2022-12-20T04:51:18;3.90;;;2.90;;
7398;SDS011;3740;50.700;7.184;2022-12-20T04:53:43;3.07;;;2.73;;
7398;SDS011;3740;50.700;7.184;2022-12-20T04:56:16;3.77;;;2.87;;
7398;SDS011;3740;50.700;7.184;2022-12-20T04:58:47;3.33;;;2.67;;
7398;SDS011;3740;50.700;7.184;2022-12-20T05:01:14;3.60;;;3.00;;
7398;SDS011;3740;50.700;7.184;2022-12-20T05:03:40;4.33;;;2.87;;
7398;SDS011;3740;50.700;7.184;2022-12-20T05:06:06;3.97;;;3.10;;
7398;SDS011;3740;50.700;7.184;2022-12-20T05:08:32;3.80;;;3.13;;
7398;SDS011;3740;50.700;7.184;2022-12-20T05:10:58;3.70;;;3.40;;
7398;SDS011;3740;50.700;7.184;2022-12-20T05:13:24;4.33;;;3.43;;
7398;SDS011;3740;50.700;7.184;2022-12-20T05:15:50;3.70;;;3.40;;
7398;SDS011;3740;50.700;7.184;2022-12-20T05:18:17;4.77;;;3.10;;
7398;SDS011;3740;50.700;7.184;2022-12-20T05:20:43;3.77;;;3.47;;
7398;SDS011;3740;50.700;7.184;2022-12-20T05:23:09;3.70;;;3.17;;
7398;SDS011;3740;50.700;7.184;2022-12-20T05:25:54;3.80;;;3.40;;
7398;SDS011;3740;50.700;7.184;2022-12-20T05:28:38;3.50;;;3.20;;
7398;SDS011;3740;50.700;7.184;2022-12-20T05:31:04;3.50;;;3.20;;
7398;SDS011;3740;50.700;7.184;2022-12-20T05:33:30;4.40;;;3.40;;
7398;SDS011;3740;50.700;7.184;2022-12-20T05:35:55;3.60;;;3.30;;
7398;SDS011;3740;50.700;7.184;2022-12-20T05:38:22;3.50;;;3.03;;
7398;SDS011;3740;50.700;7.184;2022-12-20T05:40:48;4.27;;;3.43;;
7398;SDS011;3740;50.700;7.184;2022-12-20T05:43:15;5.23;;;3.53;;
7398;SDS011;3740;50.700;7.184;2022-12-20T05:45:45;5.27;;;3.60;;
7398;SDS011;3740;50.700;7.184;2022-12-20T05:48:15;3.80;;;3.47;;
7398;SDS011;3740;50.700;7.184;2022-12-20T05:50:42;6.53;;;3.53;;
7398;SDS011;3740;50.700;7.184;2022-12-20T05:53:12;5.70;;;3.43;;
7398;SDS011;3740;50.700;7.184;2022-12-20T05:55:48;6.47;;;4.10;;
7398;SDS011;3740;50.700;7.184;2022-12-20T05:58:15;4.50;;;3.33;;
7398;SDS011;3740;50.700;7.184;2022-12-20T06:00:42;5.57;;;3.63;;
7398;SDS011;3740;50.700;7.184;2022-12-20T06:03:08;4.23;;;3.03;;
7398;SDS011;3740;50.700;7.184;2022-12-20T06:05:36;3.60;;;2.73;;
7398;SDS011;3740;50.700;7.184;2022-12-20T06:08:02;5.37;;;3.20;;
7398;SDS011;3740;50.700;7.184;2022-12-20T06:10:31;3.87;;;3.00;;
7398;SDS011;3740;50.700;7.184;2022-12-20T06:12:58;5.33;;;3.10;;
7398;SDS011;3740;50.700;7.184;2022-12-20T06:15:25;4.70;;;3.07;;
7398;SDS011;3740;50.700;7.184;2022-12-20T06:17:50;4.10;;;2.93;;
7398;SDS011;3740;50.700;7.184;2022-12-20T06:20:16;3.33;;;3.00;;
7398;SDS011;3740;50.700;7.184;2022-12-20T06:22:42;3.53;;;2.97;;
7398;SDS011;3740;50.700;7.184;2022-12-20T06:25:07;4.87;;;2.73;;
7398;SDS011;3740;50.700;7.184;2022-12-20T06:27:33;4.23;;;3.40;;
7398;SDS011;3740;50.700;7.184;2022-12-20T06:30:00;4.13;;;3.17;;
7398;SDS011;3740;50.700;7.184;2022-12-20T06:32:26;5.13;;;3.30;;
7398;SDS011;3740;50.700;7.184;2022-12-20T06:34:52;5.27;;;3.17;;
7398;SDS011;3740;50.700;7.184;2022-12-20T06:37:17;4.57;;;3.40;;
7398;SDS011;3740;50.700;7.184;2022-12-20T06:39:43;4.33;;;3.73;;
7398;SDS011;3740;50.700;7.184;2022-12-20T06:42:08;5.97;;;3.70;;
7398;SDS011;3740;50.700;7.184;2022-12-20T06:44:34;4.63;;;3.50;;
7398;SDS011;3740;50.700;7.184;2022-12-20T06:46:59;4.17;;;3.67;;
7398;SDS011;3740;50.700;7.184;2022-12-20T06:49:25;4.03;;;3.60;;
7398;SDS011;3740;50.700;7.184;2022-12-20T06:51:51;4.20;;;3.80;;
7398;SDS011;3740;50.700;7.184;2022-12-20T06:54:16;4.40;;;3.40;;
7398;SDS011;3740;50.700;7.184;2022-12-20T06:56:42;3.60;;;3.30;;
7398;SDS011;3740;50.700;7.184;2022-12-20T06:59:07;4.23;;;2.90;;
7398;SDS011;3740;50.700;7.184;2022-12-20T07:01:33;3.83;;;3.00;;
7398;SDS011;3740;50.700;7.184;2022-12-20T07:03:58;4.23;;;3.13;;
7398;SDS011;3740;50.700;7.184;2022-12-20T07:06:24;4.00;;;2.80;;
7398;SDS011;3740;50.700;7.184;2022-12-20T07:08:51;3.57;;;2.60;;
7398;SDS011;3740;50.700;7.184;2022-12-20T07:11:16;3.50;;;2.43;;
7398;SDS011;3740;50.700;7.184;2022-12-20T07:13:42;2.97;;;2.67;;
7398;SDS011;3740;50.700;7.184;2022-12-20T07:16:07;3.67;;;3.10;;
7398;SDS011;3740;50.700;7.184;2022-12-20T07:18:34;3.10;;;2.77;;
7398;SDS011;3740;50.700;7.184;2022-12-20T07:21:03;3.03;;;2.53;;
7398;SDS011;3740;50.700;7.184;2022-12-20T07:23:29;3.10;;;2.50;;
7398;SDS011;3740;50.700;7.184;2022-12-20T07:25:56;3.90;;;2.90;;
7398;SDS011;3740;50.700;7.184;2022-12-20T07:28:23;3.67;;;2.20;;
7398;SDS011;3740;50.700;7.184;2022-12-20T07:30:49;2.93;;;2.40;;
7398;SDS011;3740;50.700;7.184;2022-12-20T07:33:15;2.90;;;2.57;;
7398;SDS011;3740;50.700;7.184;2022-12-20T07:35:41;4.17;;;2.20;;
7398;SDS011;3740;50.700;7.184;2022-12-20T07:38:09;2.50;;;2.30;;
7398;SDS011;3740;50.700;7.184;2022-12-20T07:40:35;2.40;;;2.20;;
7398;SDS011;3740;50.700;7.184;2022-12-20T07:43:03;3.60;;;2.30;;
7398;SDS011;3740;50.700;7.184;2022-12-20T07:45:29;3.17;;;2.40;;
7398;SDS011;3740;50.700;7.184;2022-12-20T07:47:54;3.10;;;2.27;;
7398;SDS011;3740;50.700;7.184;2022-12-20T07:50:21;2.13;;;1.93;;
7398;SDS011;3740;50.700;7.184;2022-12-20T07:52:47;3.43;;;2.20;;
7398;SDS011;3740;50.700;7.184;2022-12-20T07:55:14;3.30;;;2.17;;
7398;SDS011;3740;50.700;7.184;2022-12-20T07:57:41;3.50;;;2.57;;
7398;SDS011;3740;50.700;7.184;2022-12-20T08:00:11;2.73;;;2.33;;
7398;SDS011;3740;50.700;7.184;2022-12-20T08:02:42;2.77;;;2.27;;
7398;SDS011;3740;50.700;7.184;2022-12-20T08:05:11;2.37;;;2.17;;
7398;SDS011;3740;50.700;7.184;2022-12-20T08:07:37;2.57;;;2.37;;
7398;SDS011;3740;50.700;7.184;2022-12-20T08:10:05;3.63;;;2.77;;
7398;SDS011;3740;50.700;7.184;2022-12-20T08:12:32;3.77;;;2.80;;
7398;SDS011;3740;50.700;7.184;2022-12-20T08:14:58;3.33;;;2.47;;
7398;SDS011;3740;50.700;7.184;2022-12-20T08:17:24;3.10;;;2.60;;
7398;SDS011;3740;50.700;7.184;2022-12-20T08:19:49;2.80;;;2.60;;
7398;SDS011;3740;50.700;7.184;2022-12-20T08:22:16;3.47;;;2.90;;
7398;SDS011;3740;50.700;7.184;2022-12-20T08:24:43;4.23;;;2.57;;
7398;SDS011;3740;50.700;7.184;2022-12-20T08:27:09;2.90;;;2.60;;
7398;SDS011;3740;50.700;7.184;2022-12-20T08:29:34;3.70;;;2.33;;
7398;SDS011;3740;50.700;7.184;2022-12-20T08:32:00;3.90;;;2.20;;
7398;SDS011;3740;50.700;7.184;2022-12-20T08:34:25;2.73;;;2.47;;
7398;SDS011;3740;50.700;7.184;2022-12-20T08:36:51;3.00;;;2.40;;
7398;SDS011;3740;50.700;7.184;2022-12-20T08:39:17;3.80;;;2.27;;
7398;SDS011;3740;50.700;7.184;2022-12-20T08:41:42;2.63;;;2.20;;
7398;SDS011;3740;50.700;7.184;2022-12-20T08:44:08;4.20;;;2.20;;
7398;SDS011;3740;50.700;7.184;2022-12-20T08:46:34;2.77;;;2.20;;
7398;SDS011;3740;50.700;7.184;2022-12-20T08:49:01;3.07;;;2.50;;
7398;SDS011;3740;50.700;7.184;2022-12-20T08:51:29;3.47;;;2.30;;
7398;SDS011;3740;50.700;7.184;2022-12-20T08:53:55;3.57;;;2.57;;
7398;SDS011;3740;50.700;7.184;2022-12-20T08:56:20;2.40;;;2.20;;
7398;SDS011;3740;50.700;7.184;2022-12-20T08:58:47;2.17;;;1.93;;
7398;SDS011;3740;50.700;7.184;2022-12-20T09:01:13;4.37;;;2.80;;
7398;SDS011;3740;50.700;7.184;2022-12-20T09:03:40;2.90;;;2.33;;
7398;SDS011;3740;50.700;7.184;2022-12-20T09:06:08;2.90;;;2.20;;
7398;SDS011;3740;50.700;7.184;2022-12-20T09:08:38;3.63;;;2.57;;
7398;SDS011;3740;50.700;7.184;2022-12-20T09:11:05;2.50;;;2.30;;
7398;SDS011;3740;50.700;7.184;2022-12-20T09:13:32;2.77;;;2.57;;
7398;SDS011;3740;50.700;7.184;2022-12-20T09:16:01;2.87;;;2.63;;
7398;SDS011;3740;50.700;7.184;2022-12-20T09:18:29;3.10;;;2.80;;
7398;SDS011;3740;50.700;7.184;2022-12-20T09:20:58;4.20;;;2.73;;
7398;SDS011;3740;50.700;7.184;2022-12-20T09:23:25;3.10;;;2.57;;
7398;SDS011;3740;50.700;7.184;2022-12-20T09:25:51;2.80;;;2.50;;
7398;SDS011;3740;50.700;7.184;2022-12-20T09:28:16;2.90;;;2.50;;
7398;SDS011;3740;50.700;7.184;2022-12-20T09:30:42;3.63;;;3.00;;
7398;SDS011;3740;50.700;7.184;2022-12-20T09:33:08;4.33;;;3.07;;
7398;SDS011;3740;50.700;7.184;2022-12-20T09:35:33;3.27;;;2.67;;
7398;SDS011;3740;50.700;7.184;2022-12-20T09:37:59;5.10;;;2.73;;
7398;SDS011;3740;50.700;7.184;2022-12-20T09:40:25;4.23;;;2.80;;
7398;SDS011;3740;50.700;7.184;2022-12-20T09:42:55;3.83;;;2.80;;
7398;SDS011;3740;50.700;7.184;2022-12-20T09:45:25;4.20;;;2.90;;
7398;SDS011;3740;50.700;7.184;2022-12-20T09:47:52;3.77;;;2.50;;
7398;SDS011;3740;50.700;7.184;2022-12-20T09:50:18;2.67;;;2.43;;
7398;SDS011;3740;50.700;7.184;2022-12-20T09:52:59;3.93;;;2.10;;
7398;SDS011;3740;50.700;7.184;2022-12-20T10:00:47;2.60;;;2.40;;
7398;SDS011;3740;50.700;7.184;2022-12-20T10:03:28;2.93;;;2.60;;
7398;SDS011;3740;50.700;7.184;2022-12-20T10:06:02;5.17;;;2.60;;
7398;SDS011;3740;50.700;7.184;2022-12-20T10:16:46;3.90;;;3.13;;
7398;SDS011;3740;50.700;7.184;2022-12-20T10:22:08;3.67;;;2.63;;
7398;SDS011;3740;50.700;7.184;2022-12-20T10:24:44;3.22;;;2.50;;
7398;SDS011;3740;50.700;7.184;2022-12-20T10:27:19;2.77;;;2.37;;
7398;SDS011;3740;50.700;7.184;2022-12-20T10:29:46;2.93;;;2.60;;
7398;SDS011;3740;50.700;7.184;2022-12-20T10:32:16;2.17;;;1.97;;
7398;SDS011;3740;50.700;7.184;2022-12-20T10:34:59;2.97;;;2.60;;
7398;SDS011;3740;50.700;7.184;2022-12-20T10:40:33;4.47;;;3.00;;
7398;SDS011;3740;50.700;7.184;2022-12-20T10:43:01;3.73;;;2.70;;
7398;SDS011;3740;50.700;7.184;2022-12-20T10:45:33;3.13;;;2.73;;
7398;SDS011;3740;50.700;7.184;2022-12-20T10:53:28;4.83;;;3.00;;
7398;SDS011;3740;50.700;7.184;2022-12-20T11:01:48;2.93;;;2.33;;
7398;SDS011;3740;50.700;7.184;2022-12-20T11:04:30;2.70;;;2.40;;
7398;SDS011;3740;50.700;7.184;2022-12-20T11:06:57;2.77;;;2.43;;
7398;SDS011;3740;50.700;7.184;2022-12-20T11:09:29;2.70;;;2.33;;
7398;SDS011;3740;50.700;7.184;2022-12-20T11:12:06;4.13;;;2.40;;
7398;SDS011;3740;50.700;7.184;2022-12-20T11:14:38;3.13;;;2.23;;
7398;SDS011;3740;50.700;7.184;2022-12-20T11:17:13;2.83;;;2.27;;
7398;SDS011;3740;50.700;7.184;2022-12-20T11:22:57;3.93;;;2.70;;
7398;SDS011;3740;50.700;7.184;2022-12-20T11:25:30;2.50;;;2.30;;
7398;SDS011;3740;50.700;7.184;2022-12-20T11:31:06;4.37;;;2.77;;
7398;SDS011;3740;50.700;7.184;2022-12-20T11:33:47;4.50;;;2.70;;
7398;SDS011;3740;50.700;7.184;2022-12-20T11:36:40;3.73;;;2.30;;
7398;SDS011;3740;50.700;7.184;2022-12-20T11:39:38;3.10;;;2.80;;
7398;SDS011;3740;50.700;7.184;2022-12-20T11:53:40;3.20;;;2.40;;
7398;SDS011;3740;50.700;7.184;2022-12-20T11:56:13;2.90;;;2.37;;
7398;SDS011;3740;50.700;7.184;2022-12-20T11:58:47;2.47;;;2.27;;
7398;SDS011;3740;50.700;7.184;2022-12-20T12:01:17;3.13;;;2.33;;
7398;SDS011;3740;50.700;7.184;2022-12-20T12:03:56;2.77;;;2.30;;
7398;SDS011;3740;50.700;7.184;2022-12-20T12:06:28;2.40;;;2.20;;
7398;SDS011;3740;50.700;7.184;2022-12-20T12:09:03;3.57;;;2.47;;
7398;SDS011;3740;50.700;7.184;2022-12-20T12:11:37;4.10;;;2.33;;
7398;SDS011;3740;50.700;7.184;2022-12-20T12:14:08;2.43;;;2.30;;
7398;SDS011;3740;50.700;7.184;2022-12-20T12:16:44;3.07;;;2.20;;
7398;SDS011;3740;50.700;7.184;2022-12-20T12:19:13;2.47;;;2.27;;
7398;SDS011;3740;50.700;7.184;2022-12-20T12:21:41;2.77;;;2.50;;
7398;SDS011;3740;50.700;7.184;2022-12-20T12:25:14;2.87;;;2.43;;
7398;SDS011;3740;50.700;7.184;2022-12-20T12:27:11;3.17;;;2.33;;
7398;SDS011;3740;50.700;7.184;2022-12-20T12:29:47;3.57;;;2.30;;
7398;SDS011;3740;50.700;7.184;2022-12-20T12:32:17;4.13;;;2.50;;
7398;SDS011;3740;50.700;7.184;2022-12-20T12:37:41;4.17;;;2.60;;
7398;SDS011;3740;50.700;7.184;2022-12-20T12:51:41;3.73;;;2.40;;
7398;SDS011;3740;50.700;7.184;2022-12-20T12:54:17;3.43;;;2.40;;
7398;SDS011;3740;50.700;7.184;2022-12-20T12:57:10;3.30;;;2.80;;
7398;SDS011;3740;50.700;7.184;2022-12-20T13:04:28;3.80;;;2.70;;
7398;SDS011;3740;50.700;7.184;2022-12-20T13:07:29;6.20;;;3.13;;
7398;SDS011;3740;50.700;7.184;2022-12-20T13:17:45;3.37;;;2.90;;
7398;SDS011;3740;50.700;7.184;2022-12-20T13:25:32;3.67;;;2.70;;
7398;SDS011;3740;50.700;7.184;2022-12-20T13:30:44;3.17;;;2.50;;
7398;SDS011;3740;50.700;7.184;2022-12-20T13:35:58;3.77;;;2.80;;
7398;SDS011;3740;50.700;7.184;2022-12-20T13:43:45;3.33;;;2.30;;
7398;SDS011;3740;50.700;7.184;2022-12-20T13:46:13;4.37;;;2.70;;
7398;SDS011;3740;50.700;7.184;2022-12-20T13:48:58;3.13;;;2.60;;
7398;SDS011;3740;50.700;7.184;2022-12-20T13:51:28;2.60;;;2.40;;
7398;SDS011;3740;50.700;7.184;2022-12-20T13:59:11;4.63;;;2.90;;
7398;SDS011;3740;50.700;7.184;2022-12-20T14:01:46;4.73;;;3.00;;
7398;SDS011;3740;50.700;7.184;2022-12-20T14:04:17;4.37;;;2.70;;
7398;SDS011;3740;50.700;7.184;2022-12-20T14:06:48;3.60;;;2.60;;
7398;SDS011;3740;50.700;7.184;2022-12-20T14:12:05;3.53;;;3.03;;
7398;SDS011;3740;50.700;7.184;2022-12-20T14:14:37;4.23;;;3.20;;
7398;SDS011;3740;50.700;7.184;2022-12-20T14:17:16;4.90;;;3.13;;
7398;SDS011;3740;50.700;7.184;2022-12-20T14:22:36;3.30;;;3.00;;
7398;SDS011;3740;50.700;7.184;2022-12-20T14:25:05;5.37;;;3.50;;
7398;SDS011;3740;50.700;7.184;2022-12-20T14:27:33;5.73;;;3.47;;
7398;SDS011;3740;50.700;7.184;2022-12-20T14:30:01;3.70;;;3.23;;
7398;SDS011;3740;50.700;7.184;2022-12-20T14:32:28;3.70;;;2.90;;
7398;SDS011;3740;50.700;7.184;2022-12-20T14:34:54;5.10;;;3.40;;
7398;SDS011;3740;50.700;7.184;2022-12-20T14:42:36;3.80;;;2.93;;
7398;SDS011;3740;50.700;7.184;2022-12-20T14:47:28;3.50;;;3.20;;
7398;SDS011;3740;50.700;7.184;2022-12-20T14:49:55;4.03;;;3.10;;
7398;SDS011;3740;50.700;7.184;2022-12-20T14:52:33;4.13;;;3.73;;
7398;SDS011;3740;50.700;7.184;2022-12-20T14:55:05;3.77;;;2.90;;
7398;SDS011;3740;50.700;7.184;2022-12-20T14:57:53;4.73;;;3.27;;
7398;SDS011;3740;50.700;7.184;2022-12-20T15:00:23;4.93;;;3.70;;
7398;SDS011;3740;50.700;7.184;2022-12-20T15:16:04;3.30;;;3.00;;
7398;SDS011;3740;50.700;7.184;2022-12-20T15:18:30;3.60;;;3.13;;
7398;SDS011;3740;50.700;7.184;2022-12-20T15:20:59;4.13;;;3.13;;
7398;SDS011;3740;50.700;7.184;2022-12-20T15:23:46;5.37;;;3.30;;
7398;SDS011;3740;50.700;7.184;2022-12-20T15:26:14;6.10;;;3.47;;
7398;SDS011;3740;50.700;7.184;2022-12-20T15:28:40;3.63;;;3.07;;
7398;SDS011;3740;50.700;7.184;2022-12-20T15:31:08;3.87;;;3.07;;
7398;SDS011;3740;50.700;7.184;2022-12-20T15:33:36;3.23;;;2.93;;
7398;SDS011;3740;50.700;7.184;2022-12-20T15:36:03;3.80;;;3.43;;
7398;SDS011;3740;50.700;7.184;2022-12-20T15:38:29;6.10;;;3.67;;
7398;SDS011;3740;50.700;7.184;2022-12-20T15:40:55;5.80;;;3.53;;
7398;SDS011;3740;50.700;7.184;2022-12-20T15:43:27;3.20;;;2.90;;
7398;SDS011;3740;50.700;7.184;2022-12-20T15:45:55;4.97;;;3.10;;
7398;SDS011;3740;50.700;7.184;2022-12-20T15:48:22;4.87;;;3.00;;
7398;SDS011;3740;50.700;7.184;2022-12-20T15:50:54;3.90;;;2.93;;
7398;SDS011;3740;50.700;7.184;2022-12-20T15:53:31;5.00;;;3.20;;
7398;SDS011;3740;50.700;7.184;2022-12-20T15:55:58;3.30;;;2.93;;
7398;SDS011;3740;50.700;7.184;2022-12-20T15:58:25;3.30;;;2.97;;
7398;SDS011;3740;50.700;7.184;2022-12-20T16:00:54;3.70;;;3.03;;
7398;SDS011;3740;50.700;7.184;2022-12-20T16:03:24;5.10;;;2.90;;
7398;SDS011;3740;50.700;7.184;2022-12-20T16:05:54;3.90;;;2.80;;
7398;SDS011;3740;50.700;7.184;2022-12-20T16:08:20;3.17;;;2.50;;
7398;SDS011;3740;50.700;7.184;2022-12-20T16:10:46;3.40;;;2.87;;
7398;SDS011;3740;50.700;7.184;2022-12-20T16:13:13;3.67;;;2.80;;
7398;SDS011;3740;50.700;7.184;2022-12-20T16:15:40;3.27;;;2.50;;
7398;SDS011;3740;50.700;7.184;2022-12-20T16:18:07;4.60;;;3.17;;
7398;SDS011;3740;50.700;7.184;2022-12-20T16:20:33;4.93;;;2.70;;
7398;SDS011;3740;50.700;7.184;2022-12-20T16:22:59;4.00;;;2.87;;
7398;SDS011;3740;50.700;7.184;2022-12-20T16:25:29;4.50;;;2.97;;
7398;SDS011;3740;50.700;7.184;2022-12-20T16:27:56;5.80;;;3.13;;
7398;SDS011;3740;50.700;7.184;2022-12-20T16:30:23;4.40;;;2.93;;
7398;SDS011;3740;50.700;7.184;2022-12-20T16:32:49;3.23;;;2.70;;
7398;SDS011;3740;50.700;7.184;2022-12-20T16:35:30;3.83;;;3.07;;
7398;SDS011;3740;50.700;7.184;2022-12-20T16:37:58;3.10;;;2.80;;
7398;SDS011;3740;50.700;7.184;2022-12-20T16:40:25;3.87;;;3.03;;
7398;SDS011;3740;50.700;7.184;2022-12-20T16:42:55;3.73;;;2.93;;
7398;SDS011;3740;50.700;7.184;2022-12-20T16:45:23;3.37;;;2.90;;
7398;SDS011;3740;50.700;7.184;2022-12-20T16:47:50;4.47;;;2.93;;
7398;SDS011;3740;50.700;7.184;2022-12-20T16:50:17;4.53;;;2.90;;
7398;SDS011;3740;50.700;7.184;2022-12-20T16:52:44;3.60;;;3.00;;
7398;SDS011;3740;50.700;7.184;2022-12-20T16:55:14;3.10;;;2.80;;
7398;SDS011;3740;50.700;7.184;2022-12-20T16:57:44;3.80;;;2.90;;
7398;SDS011;3740;50.700;7.184;2022-12-20T17:00:14;4.80;;;3.50;;
7398;SDS011;3740;50.700;7.184;2022-12-20T17:02:42;5.23;;;3.57;;
7398;SDS011;3740;50.700;7.184;2022-12-20T17:05:14;3.40;;;3.03;;
7398;SDS011;3740;50.700;7.184;2022-12-20T17:08:08;4.13;;;3.70;;
7398;SDS011;3740;50.700;7.184;2022-12-20T17:10:34;3.97;;;3.23;;
7398;SDS011;3740;50.700;7.184;2022-12-20T17:12:59;5.00;;;4.10;;
7398;SDS011;3740;50.700;7.184;2022-12-20T17:15:27;5.30;;;4.20;;
7398;SDS011;3740;50.700;7.184;2022-12-20T17:17:54;5.10;;;4.30;;
7398;SDS011;3740;50.700;7.184;2022-12-20T17:20:20;5.80;;;4.30;;
7398;SDS011;3740;50.700;7.184;2022-12-20T17:22:48;4.50;;;3.63;;
7398;SDS011;3740;50.700;7.184;2022-12-20T17:25:19;4.67;;;3.97;;
7398;SDS011;3740;50.700;7.184;2022-12-20T17:27:50;4.70;;;3.60;;
7398;SDS011;3740;50.700;7.184;2022-12-20T17:30:17;3.93;;;3.53;;
7398;SDS011;3740;50.700;7.184;2022-12-20T17:32:43;4.40;;;3.83;;
7398;SDS011;3740;50.700;7.184;2022-12-20T17:35:22;4.73;;;3.60;;
7398;SDS011;3740;50.700;7.184;2022-12-20T17:37:48;4.57;;;3.77;;
7398;SDS011;3740;50.700;7.184;2022-12-20T17:40:16;6.57;;;3.87;;
7398;SDS011;3740;50.700;7.184;2022-12-20T17:42:42;6.13;;;3.77;;
7398;SDS011;3740;50.700;7.184;2022-12-20T17:45:17;5.97;;;3.67;;
7398;SDS011;3740;50.700;7.184;2022-12-20T17:47:44;4.50;;;3.87;;
7398;SDS011;3740;50.700;7.184;2022-12-20T17:50:09;3.93;;;3.30;;
7398;SDS011;3740;50.700;7.184;2022-12-20T17:52:35;4.77;;;3.87;;